createdAt,value
2019-05-03T00:00:28.211Z,7.70
2019-05-03T00:02:58.429Z,7.70
2019-05-03T00:05:28.749Z,7.80
2019-05-03T00:08:02.031Z,7.80
2019-05-03T00:10:31.769Z,7.90
2019-05-03T00:13:01.908Z,8.00
2019-05-03T00:15:32.412Z,7.90
2019-05-03T00:18:02.340Z,8.00
2019-05-03T00:20:32.621Z,8.00
2019-05-03T00:23:02.933Z,8.00
2019-05-03T00:25:32.635Z,8.10
2019-05-03T00:28:01.881Z,8.20
2019-05-03T00:30:31.994Z,8.10
2019-05-03T00:33:02.712Z,8.10
2019-05-03T00:35:48.074Z,8.20
2019-05-03T00:38:16.920Z,8.20
2019-05-03T00:40:45.513Z,8.20
2019-05-03T00:43:14.129Z,8.20
2019-05-03T00:45:42.709Z,8.20
2019-05-03T00:48:12.393Z,8.20
2019-05-03T00:50:42.540Z,8.20
2019-05-03T00:53:11.721Z,8.10
2019-05-03T00:55:41.985Z,8.10
2019-05-03T00:58:11.782Z,8.00
2019-05-03T01:00:41.769Z,7.90
2019-05-03T01:03:12.421Z,7.90
2019-05-03T01:05:42.333Z,7.80
2019-05-03T01:08:12.704Z,7.90
2019-05-03T01:10:42.150Z,7.80
2019-05-03T01:13:12.363Z,7.70
2019-05-03T01:15:45.596Z,7.60
2019-05-03T01:18:15.867Z,7.60
2019-05-03T01:20:44.449Z,7.60
2019-05-03T01:23:13.035Z,7.60
2019-05-03T01:25:42.893Z,7.50
2019-05-03T01:28:12.261Z,7.50
2019-05-03T01:30:42.474Z,7.50
2019-05-03T01:33:32.128Z,7.40
2019-05-03T01:36:02.703Z,7.40
2019-05-03T01:38:31.929Z,7.40
2019-05-03T01:41:01.704Z,7.40
2019-05-03T01:43:31.775Z,7.50
2019-05-03T01:46:02.512Z,7.50
2019-05-03T01:48:35.214Z,7.50
2019-05-03T01:51:17.215Z,7.50
2019-05-03T01:53:46.203Z,7.50
2019-05-03T01:56:14.781Z,7.50
2019-05-03T01:58:43.365Z,7.50
2019-05-03T02:01:13.623Z,7.50
2019-05-03T02:03:49.784Z,7.50
2019-05-03T02:06:17.579Z,7.50
2019-05-03T02:08:46.984Z,7.50
2019-05-03T02:11:15.562Z,7.50
2019-05-03T02:13:44.143Z,7.40
2019-05-03T02:16:12.783Z,7.40
2019-05-03T02:18:42.387Z,7.40
2019-05-03T02:21:12.239Z,7.30
2019-05-03T02:23:42.589Z,7.30
2019-05-03T02:26:11.760Z,7.20
2019-05-03T02:28:42.186Z,7.20
2019-05-03T02:31:13.396Z,7.20
2019-05-03T02:33:43.162Z,7.10
2019-05-03T02:36:13.693Z,7.10
2019-05-03T02:38:42.903Z,7.10
2019-05-03T02:41:13.526Z,7.10
2019-05-03T02:43:45.229Z,7.10
2019-05-03T02:46:18.494Z,7.20
2019-05-03T02:48:51.428Z,7.20
2019-05-03T02:51:19.998Z,7.20
2019-05-03T02:53:48.607Z,7.20
2019-05-03T02:56:22.128Z,7.20
2019-05-03T02:58:47.409Z,7.30
2019-05-03T03:01:16.480Z,7.30
2019-05-03T03:03:45.904Z,7.30
2019-05-03T03:06:17.508Z,7.30
2019-05-03T03:08:48.508Z,7.40
2019-05-03T03:11:19.824Z,7.40
2019-05-03T03:13:50.593Z,7.50
2019-05-03T03:16:21.214Z,7.50
2019-05-03T03:18:55.677Z,7.50
2019-05-03T03:21:26.022Z,7.50
2019-05-03T03:24:09.634Z,7.50
2019-05-03T03:26:43.143Z,7.50
2019-05-03T03:29:11.852Z,7.50
2019-05-03T03:31:48.160Z,7.50
2019-05-03T03:34:18.650Z,7.50
2019-05-03T03:37:00.770Z,7.60
2019-05-03T03:39:21.331Z,7.60
2019-05-03T03:41:50.568Z,7.60
2019-05-03T03:44:20.616Z,7.60
2019-05-03T03:46:52.401Z,7.70
2019-05-03T03:49:21.925Z,7.60
2019-05-03T03:51:56.095Z,7.70
2019-05-03T03:54:25.799Z,7.70
2019-05-03T03:57:03.941Z,7.70
2019-05-03T03:59:27.160Z,7.70
2019-05-03T04:01:55.940Z,7.70
2019-05-03T04:04:26.087Z,7.80
2019-05-03T04:07:00.524Z,7.70
2019-05-03T04:09:26.013Z,7.70
2019-05-03T04:11:56.788Z,7.70
2019-05-03T04:14:28.053Z,7.70
2019-05-03T04:16:58.816Z,7.70
2019-05-03T04:19:38.406Z,7.70
2019-05-03T04:22:07.229Z,7.70
2019-05-03T04:24:35.888Z,7.70
2019-05-03T04:27:18.038Z,7.70
2019-05-03T04:29:38.553Z,7.70
2019-05-03T04:32:09.129Z,7.80
2019-05-03T04:34:37.917Z,7.80
2019-05-03T04:37:06.744Z,7.80
2019-05-03T04:39:36.057Z,7.80
2019-05-03T04:42:06.700Z,7.90
2019-05-03T04:44:36.088Z,7.90
2019-05-03T04:47:06.781Z,8.00
2019-05-03T04:49:36.256Z,7.90
2019-05-03T04:52:05.819Z,8.00
2019-05-03T04:54:44.938Z,8.00
2019-05-03T04:57:12.461Z,8.00
2019-05-03T04:59:41.004Z,8.10
2019-05-03T05:02:09.604Z,8.10
2019-05-03T05:04:38.164Z,8.10
2019-05-03T05:07:06.648Z,8.20
2019-05-03T05:09:35.204Z,8.20
2019-05-03T05:12:05.726Z,8.20
2019-05-03T05:14:35.282Z,8.30
2019-05-03T05:17:06.067Z,8.30
2019-05-03T05:19:36.612Z,8.40
2019-05-03T05:22:09.546Z,8.40
2019-05-03T05:24:38.192Z,8.40
2019-05-03T05:27:20.344Z,8.50
2019-05-03T05:29:48.797Z,8.50
2019-05-03T05:32:17.258Z,8.50
2019-05-03T05:34:46.049Z,8.60
2019-05-03T05:37:14.674Z,8.60
2019-05-03T05:39:44.715Z,8.70
2019-05-03T05:42:14.931Z,8.70
2019-05-03T05:44:45.239Z,8.70
2019-05-03T05:47:31.623Z,8.70
2019-05-03T05:50:01.805Z,8.80
2019-05-03T05:52:30.265Z,8.90
2019-05-03T05:55:00.411Z,8.90
2019-05-03T05:57:30.512Z,8.90
2019-05-03T06:00:00.608Z,9.00
2019-05-03T06:02:29.119Z,9.00
2019-05-03T06:04:57.648Z,9.00
2019-05-03T06:07:44.371Z,9.10
2019-05-03T06:10:21.157Z,9.20
2019-05-03T06:12:54.653Z,9.20
2019-05-03T06:15:40.131Z,9.20
2019-05-03T06:18:10.263Z,9.20
2019-05-03T06:20:40.362Z,9.20
2019-05-03T06:23:14.454Z,9.30
2019-05-03T06:25:45.310Z,9.30
2019-05-03T06:28:20.125Z,9.40
2019-05-03T06:30:55.941Z,9.40
2019-05-03T06:33:24.589Z,9.40
2019-05-03T06:35:54.701Z,9.40
2019-05-03T06:38:24.410Z,9.50
2019-05-03T06:40:54.414Z,9.40
2019-05-03T06:43:24.458Z,9.50
2019-05-03T06:45:54.793Z,9.60
2019-05-03T06:48:28.017Z,9.70
2019-05-03T06:50:55.650Z,9.70
2019-05-03T06:53:25.439Z,9.70
2019-05-03T06:55:55.413Z,9.80
2019-05-03T06:58:31.305Z,9.80
2019-05-03T07:00:55.876Z,9.90
2019-05-03T07:03:28.668Z,10.00
2019-05-03T07:06:17.357Z,9.90
2019-05-03T07:08:47.532Z,10.00
2019-05-03T07:11:15.983Z,10.10
2019-05-03T07:13:44.941Z,10.20
2019-05-03T07:16:14.968Z,10.20
2019-05-03T07:18:45.509Z,10.10
2019-05-03T07:21:15.228Z,10.20
2019-05-03T07:23:45.088Z,10.30
2019-05-03T07:26:15.086Z,10.30
2019-05-03T07:28:47.748Z,10.20
2019-05-03T07:31:15.120Z,10.20
2019-05-03T07:33:44.641Z,10.20
2019-05-03T07:36:15.253Z,10.20
2019-05-03T07:38:45.242Z,10.20
2019-05-03T07:41:14.885Z,10.50
2019-05-03T07:43:45.062Z,10.60
2019-05-03T07:46:14.727Z,10.50
2019-05-03T07:48:45.563Z,10.50
2019-05-03T07:51:14.452Z,10.50
2019-05-03T07:53:45.082Z,10.50
2019-05-03T07:56:15.479Z,10.70
2019-05-03T07:58:59.062Z,11.00
2019-05-03T08:01:36.120Z,11.40
2019-05-03T08:04:05.803Z,11.70
2019-05-03T08:06:34.701Z,11.40
2019-05-03T08:09:05.855Z,11.80
2019-05-03T08:11:35.181Z,11.70
2019-05-03T08:14:05.461Z,11.30
2019-05-03T08:16:35.255Z,11.40
2019-05-03T08:19:04.994Z,11.60
2019-05-03T08:21:37.732Z,11.70
2019-05-03T08:24:04.574Z,11.50
2019-05-03T08:26:35.077Z,11.70
2019-05-03T08:29:15.333Z,12.10
2019-05-03T08:31:45.464Z,12.00
2019-05-03T08:34:25.734Z,12.20
2019-05-03T08:36:58.775Z,12.00
2019-05-03T08:39:27.231Z,12.00
2019-05-03T08:41:57.327Z,11.70
2019-05-03T08:44:26.564Z,11.50
2019-05-03T08:46:56.399Z,11.80
2019-05-03T08:49:25.465Z,12.00
2019-05-03T08:51:54.961Z,12.20
2019-05-03T08:54:25.559Z,12.40
2019-05-03T08:56:55.724Z,12.10
2019-05-03T08:59:31.493Z,11.80
2019-05-03T09:01:55.153Z,12.30
2019-05-03T09:04:36.057Z,13.10
2019-05-03T09:06:55.103Z,12.80
2019-05-03T09:09:31.570Z,12.60
2019-05-03T09:12:00.092Z,12.50
2019-05-03T09:14:41.387Z,12.80
2019-05-03T09:16:59.007Z,12.70
2019-05-03T09:19:27.500Z,12.50
2019-05-03T09:21:55.956Z,12.20
2019-05-03T09:24:24.676Z,12.30
2019-05-03T09:26:55.431Z,12.20
2019-05-03T09:29:25.413Z,12.20
2019-05-03T09:31:55.440Z,12.40
2019-05-03T09:34:25.675Z,12.50
2019-05-03T09:36:55.358Z,12.60
2019-05-03T09:39:24.530Z,12.50
2019-05-03T09:41:55.333Z,12.20
2019-05-03T09:44:24.471Z,12.30
2019-05-03T09:46:55.002Z,12.40
2019-05-03T09:49:25.324Z,12.20
2019-05-03T09:51:54.781Z,12.30
2019-05-03T09:54:30.913Z,12.20
2019-05-03T09:57:00.018Z,12.10
2019-05-03T09:59:29.317Z,12.20
2019-05-03T10:01:58.554Z,12.10
2019-05-03T10:04:27.084Z,12.00
2019-05-03T10:06:55.680Z,12.20
2019-05-03T10:09:26.063Z,12.50
2019-05-03T10:11:55.143Z,12.70
2019-05-03T10:14:24.315Z,12.70
2019-05-03T10:17:10.417Z,12.60
2019-05-03T10:19:40.513Z,12.80
2019-05-03T10:22:09.707Z,13.10
2019-05-03T10:24:38.221Z,12.90
2019-05-03T10:27:06.761Z,12.70
2019-05-03T10:29:35.222Z,13.20
2019-05-03T10:32:11.487Z,13.10
2019-05-03T10:34:40.800Z,13.40
2019-05-03T10:37:10.932Z,13.50
2019-05-03T10:39:39.496Z,12.80
2019-05-03T10:42:07.951Z,13.00
2019-05-03T10:44:36.481Z,13.30
2019-05-03T10:47:05.623Z,13.40
2019-05-03T10:49:35.204Z,13.20
2019-05-03T10:52:05.784Z,13.30
2019-05-03T10:54:35.787Z,13.10
2019-05-03T10:57:06.461Z,13.10
2019-05-03T10:59:35.580Z,12.90
2019-05-03T11:02:05.937Z,12.80
2019-05-03T11:04:35.661Z,12.90
2019-05-03T11:07:05.537Z,13.00
2019-05-03T11:09:47.939Z,13.10
2019-05-03T11:12:05.403Z,13.00
2019-05-03T11:14:35.013Z,12.90
2019-05-03T11:17:05.707Z,12.80
2019-05-03T11:19:34.830Z,12.80
2019-05-03T11:22:05.263Z,12.80
2019-05-03T11:24:34.874Z,12.50
2019-05-03T11:27:05.400Z,12.50
2019-05-03T11:29:35.594Z,12.70
2019-05-03T11:32:10.587Z,13.00
2019-05-03T11:34:46.752Z,13.00
2019-05-03T11:37:19.650Z,13.10
2019-05-03T11:39:48.269Z,13.00
2019-05-03T11:42:18.603Z,13.00
2019-05-03T11:44:46.936Z,13.10
2019-05-03T11:47:15.391Z,13.20
2019-05-03T11:49:45.462Z,12.80
2019-05-03T11:52:15.882Z,12.90
2019-05-03T11:54:45.233Z,13.10
2019-05-03T11:57:27.686Z,13.10
2019-05-03T11:59:56.304Z,12.90
2019-05-03T12:02:29.376Z,13.10
2019-05-03T12:04:59.584Z,13.10
2019-05-03T12:07:39.639Z,13.10
2019-05-03T12:10:17.636Z,13.00
2019-05-03T12:12:37.693Z,13.00
2019-05-03T12:15:07.095Z,12.80
2019-05-03T12:17:51.962Z,12.90
2019-05-03T12:20:17.259Z,13.00
2019-05-03T12:22:46.519Z,13.40
2019-05-03T12:25:16.726Z,13.00
2019-05-03T12:27:44.754Z,13.30
2019-05-03T12:30:15.305Z,13.60
2019-05-03T12:32:43.936Z,13.60
2019-05-03T12:35:15.162Z,13.40
2019-05-03T12:37:43.023Z,13.10
2019-05-03T12:40:14.773Z,13.00
2019-05-03T12:42:45.267Z,13.20
2019-05-03T12:45:15.217Z,13.40
2019-05-03T12:47:45.310Z,13.40
2019-05-03T12:50:15.669Z,13.10
2019-05-03T12:52:50.505Z,13.20
2019-05-03T12:55:15.391Z,13.20
2019-05-03T12:57:45.772Z,13.40
2019-05-03T13:00:25.913Z,13.30
2019-05-03T13:02:56.077Z,13.50
2019-05-03T13:05:24.971Z,13.90
2019-05-03T13:08:11.697Z,13.90
2019-05-03T13:10:39.430Z,13.70
2019-05-03T13:13:07.895Z,13.70
2019-05-03T13:15:36.390Z,13.70
2019-05-03T13:18:05.045Z,13.40
2019-05-03T13:20:35.872Z,13.30
2019-05-03T13:23:05.424Z,13.20
2019-05-03T13:25:35.582Z,13.20
2019-05-03T13:28:05.495Z,13.50
2019-05-03T13:30:34.585Z,13.40
2019-05-03T13:33:05.597Z,13.20
2019-05-03T13:35:35.151Z,13.10
2019-05-03T13:38:03.690Z,13.30
2019-05-03T13:40:32.218Z,13.30
2019-05-03T13:43:03.915Z,13.10
2019-05-03T13:45:30.894Z,13.40
2019-05-03T13:47:59.346Z,13.10
2019-05-03T13:50:27.805Z,13.40
2019-05-03T13:52:56.319Z,13.40
2019-05-03T13:55:24.836Z,13.50
2019-05-03T13:57:54.856Z,13.50
2019-05-03T14:00:24.686Z,13.20
2019-05-03T14:02:53.272Z,13.10
2019-05-03T14:05:21.728Z,13.10
2019-05-03T14:07:50.203Z,13.00
2019-05-03T14:10:18.973Z,13.20
2019-05-03T14:12:47.423Z,13.10
2019-05-03T14:15:16.568Z,13.20
2019-05-03T14:17:45.036Z,13.20
2019-05-03T14:20:27.925Z,13.00
2019-05-03T14:22:56.376Z,13.00
2019-05-03T14:25:24.843Z,12.70
2019-05-03T14:27:54.990Z,12.60
2019-05-03T14:30:25.301Z,12.50
2019-05-03T14:32:55.715Z,12.50
2019-05-03T14:35:25.100Z,12.40
2019-05-03T14:37:55.124Z,12.00
2019-05-03T14:40:25.080Z,12.00
2019-05-03T14:42:55.495Z,12.00
2019-05-03T14:45:25.563Z,11.90
2019-05-03T14:47:54.720Z,12.00
2019-05-03T14:50:25.470Z,12.00
2019-05-03T14:52:57.109Z,12.00
2019-05-03T14:55:36.088Z,11.90
2019-05-03T14:58:22.671Z,11.70
2019-05-03T15:01:01.279Z,11.80
2019-05-03T15:03:30.112Z,11.80
2019-05-03T15:05:58.643Z,11.70
2019-05-03T15:08:27.313Z,11.70
2019-05-03T15:10:55.843Z,11.80
2019-05-03T15:13:25.153Z,11.70
2019-05-03T15:15:54.771Z,11.80
2019-05-03T15:18:25.392Z,11.80
2019-05-03T15:20:54.919Z,11.70
2019-05-03T15:23:25.491Z,11.60
2019-05-03T15:25:54.587Z,11.50
2019-05-03T15:28:25.091Z,11.40
2019-05-03T15:30:55.364Z,11.40
2019-05-03T15:33:23.681Z,11.70
2019-05-03T15:35:52.136Z,11.80
2019-05-03T15:38:20.652Z,11.70
2019-05-03T15:40:49.276Z,11.90
2019-05-03T15:43:19.368Z,12.10
2019-05-03T15:45:54.399Z,12.10
2019-05-03T15:48:27.022Z,12.00
2019-05-03T15:50:55.528Z,12.30
2019-05-03T15:53:24.683Z,12.40
2019-05-03T15:55:55.053Z,12.00
2019-05-03T15:58:24.877Z,11.60
2019-05-03T16:00:55.375Z,12.00
2019-05-03T16:03:25.261Z,12.00
2019-05-03T16:05:55.608Z,11.90
2019-05-03T16:08:24.789Z,12.00
2019-05-03T16:10:54.890Z,12.10
2019-05-03T16:13:25.305Z,12.20
2019-05-03T16:15:55.284Z,11.90
2019-05-03T16:18:24.551Z,11.90
2019-05-03T16:20:54.652Z,11.90
2019-05-03T16:23:24.996Z,11.80
2019-05-03T16:25:54.377Z,11.80
2019-05-03T16:28:31.130Z,11.90
2019-05-03T16:31:01.224Z,11.90
2019-05-03T16:33:29.688Z,12.00
2019-05-03T16:35:58.180Z,12.10
2019-05-03T16:38:26.671Z,12.10
2019-05-03T16:40:55.131Z,12.10
2019-05-03T16:43:25.482Z,12.00
2019-05-03T16:45:55.159Z,12.00
2019-05-03T16:48:24.721Z,11.90
2019-05-03T16:50:53.388Z,11.80
2019-05-03T16:53:21.987Z,11.80
2019-05-03T16:55:50.514Z,11.80
2019-05-03T16:58:19.005Z,11.80
2019-05-03T17:00:47.536Z,12.00
2019-05-03T17:03:17.636Z,11.90
2019-05-03T17:05:53.626Z,12.00
2019-05-03T17:08:26.360Z,12.00
2019-05-03T17:10:57.038Z,12.00
2019-05-03T17:13:25.739Z,12.00
2019-05-03T17:15:54.349Z,12.00
2019-05-03T17:18:24.636Z,11.90
2019-05-03T17:20:54.718Z,12.10
2019-05-03T17:23:24.615Z,11.80
2019-05-03T17:25:53.464Z,11.60
2019-05-03T17:28:22.018Z,11.70
2019-05-03T17:30:50.488Z,11.60
2019-05-03T17:33:18.934Z,11.60
2019-05-03T17:35:47.434Z,11.60
2019-05-03T17:38:15.907Z,11.60
2019-05-03T17:40:51.641Z,11.60
2019-05-03T17:43:30.971Z,11.70
2019-05-03T17:46:01.176Z,11.60
2019-05-03T17:48:29.788Z,11.60
2019-05-03T17:50:58.237Z,11.50
2019-05-03T17:53:31.083Z,11.50
2019-05-03T17:56:10.002Z,11.50
2019-05-03T17:58:44.355Z,11.50
2019-05-03T18:01:27.458Z,11.50
2019-05-03T18:04:06.691Z,11.40
2019-05-03T18:06:32.393Z,11.40
2019-05-03T18:09:08.503Z,11.40
2019-05-03T18:11:37.821Z,11.40
2019-05-03T18:14:06.347Z,11.40
2019-05-03T18:16:35.046Z,11.20
2019-05-03T18:19:05.198Z,11.30
2019-05-03T18:21:34.013Z,11.20
2019-05-03T18:24:02.515Z,11.20
2019-05-03T18:26:30.986Z,11.30
2019-05-03T18:28:59.508Z,11.30
2019-05-03T18:31:27.987Z,11.20
2019-05-03T18:33:56.443Z,11.20
2019-05-03T18:36:25.367Z,11.20
2019-05-03T18:38:55.210Z,11.20
2019-05-03T18:41:25.526Z,11.20
2019-05-03T18:43:58.525Z,11.10
2019-05-03T18:46:28.629Z,11.00
2019-05-03T18:48:57.080Z,11.00
2019-05-03T18:51:25.580Z,11.00
2019-05-03T18:53:54.401Z,11.00
2019-05-03T18:56:25.044Z,10.90
2019-05-03T18:58:54.387Z,10.90
2019-05-03T19:01:25.168Z,10.80
2019-05-03T19:03:55.438Z,10.80
2019-05-03T19:06:24.180Z,10.70
2019-05-03T19:09:10.544Z,10.70
2019-05-03T19:11:40.684Z,10.70
2019-05-03T19:14:10.978Z,10.70
2019-05-03T19:16:45.518Z,10.70
2019-05-03T19:19:15.878Z,10.70
2019-05-03T19:21:44.498Z,10.70
2019-05-03T19:24:15.097Z,10.60
2019-05-03T19:26:45.083Z,10.60
2019-05-03T19:29:14.923Z,10.60
2019-05-03T19:31:44.906Z,10.60
2019-05-03T19:34:15.473Z,10.60
2019-05-03T19:36:45.504Z,10.60
2019-05-03T19:39:14.421Z,10.60
2019-05-03T19:41:44.797Z,10.50
2019-05-03T19:44:15.013Z,10.50
2019-05-03T19:46:44.510Z,10.50
2019-05-03T19:49:13.180Z,10.50
2019-05-03T19:51:41.630Z,10.40
2019-05-03T19:54:10.167Z,10.40
2019-05-03T19:56:38.669Z,10.40
2019-05-03T19:59:08.837Z,10.40
2019-05-03T20:01:51.047Z,10.40
2019-05-03T20:04:27.043Z,10.30
2019-05-03T20:07:06.058Z,10.30
2019-05-03T20:09:35.027Z,10.30
2019-05-03T20:12:04.601Z,10.30
2019-05-03T20:14:33.270Z,10.30
2019-05-03T20:17:04.076Z,10.30
2019-05-03T20:19:31.920Z,10.20
2019-05-03T20:22:00.423Z,10.20
2019-05-03T20:24:30.844Z,10.20
2019-05-03T20:26:59.071Z,10.20
2019-05-03T20:29:27.585Z,10.20
2019-05-03T20:31:56.047Z,10.20
2019-05-03T20:34:24.871Z,10.20
2019-05-03T20:36:54.849Z,10.20
2019-05-03T20:39:25.263Z,10.10
2019-05-03T20:41:55.018Z,10.10
2019-05-03T20:44:25.349Z,10.00
2019-05-03T20:47:04.547Z,10.00
2019-05-03T20:49:34.727Z,9.90
2019-05-03T20:52:03.659Z,9.80
2019-05-03T20:54:32.104Z,9.80
2019-05-03T20:57:00.608Z,9.70
2019-05-03T20:59:41.944Z,9.80
2019-05-03T21:01:59.496Z,9.70
2019-05-03T21:04:27.982Z,9.50
2019-05-03T21:06:56.473Z,9.50
2019-05-03T21:09:24.952Z,9.50
2019-05-03T21:11:55.173Z,9.50
2019-05-03T21:14:24.495Z,9.40
2019-05-03T21:17:10.940Z,9.40
2019-05-03T21:19:49.841Z,9.40
2019-05-03T21:22:19.991Z,9.30
2019-05-03T21:24:50.087Z,9.30
2019-05-03T21:27:18.536Z,9.20
2019-05-03T21:29:51.414Z,9.20
2019-05-03T21:32:20.093Z,9.10
2019-05-03T21:34:48.912Z,9.00
2019-05-03T21:37:17.469Z,8.90
2019-05-03T21:39:45.917Z,8.90
2019-05-03T21:42:15.167Z,8.80
2019-05-03T21:44:44.798Z,8.70
2019-05-03T21:47:17.996Z,8.70
2019-05-03T21:49:47.863Z,8.70
2019-05-03T21:52:16.407Z,8.60
2019-05-03T21:54:45.137Z,8.50
2019-05-03T21:57:14.293Z,8.50
2019-05-03T21:59:44.778Z,8.30
2019-05-03T22:02:15.384Z,8.10
2019-05-03T22:04:44.424Z,8.10
2019-05-03T22:07:13.063Z,8.00
2019-05-03T22:09:41.535Z,7.80
2019-05-03T22:12:10.018Z,7.80
2019-05-03T22:14:42.834Z,7.80
2019-05-03T22:17:15.438Z,7.80
2019-05-03T22:19:45.657Z,7.70
2019-05-03T22:22:25.558Z,7.70
2019-05-03T22:24:56.252Z,7.70
2019-05-03T22:27:25.182Z,7.60
2019-05-03T22:29:54.592Z,7.60
2019-05-03T22:32:24.472Z,7.60
2019-05-03T22:34:53.498Z,7.60
2019-05-03T22:37:21.975Z,7.50
2019-05-03T22:39:50.430Z,7.50
2019-05-03T22:42:18.899Z,7.40
2019-05-03T22:44:47.389Z,7.50
2019-05-03T22:47:15.851Z,7.40
2019-05-03T22:49:45.673Z,7.30
2019-05-03T22:52:15.445Z,7.30
2019-05-03T22:54:45.150Z,7.20
2019-05-03T22:57:15.334Z,7.20
2019-05-03T22:59:44.919Z,7.20
2019-05-03T23:02:16.835Z,7.20
2019-05-03T23:04:44.813Z,7.10
2019-05-03T23:07:14.848Z,7.00
2019-05-03T23:09:44.673Z,7.00
2019-05-03T23:12:13.347Z,7.00
2019-05-03T23:14:41.827Z,7.00
2019-05-03T23:17:10.267Z,6.80
2019-05-03T23:19:40.359Z,6.80
2019-05-03T23:22:10.496Z,6.70
2019-05-03T23:24:38.956Z,6.80
2019-05-03T23:27:07.468Z,6.70
2019-05-03T23:29:35.944Z,6.70
2019-05-03T23:32:04.822Z,6.60
2019-05-03T23:34:35.087Z,6.60
2019-05-03T23:37:05.484Z,6.60
2019-05-03T23:39:33.804Z,6.60
2019-05-03T23:42:04.824Z,6.50
2019-05-03T23:44:35.120Z,6.50
2019-05-03T23:47:08.505Z,6.60
2019-05-03T23:49:36.953Z,6.50
2019-05-03T23:52:25.645Z,6.50
2019-05-03T23:54:56.054Z,6.50
2019-05-03T23:57:25.183Z,6.60
2019-05-03T23:59:54.972Z,6.50
